<?xml version="1.0" encoding="UTF-8" standalone="no" ?>
<gpx xmlns="http://www.topografix.com/GPX/1/1" xmlns:xsi="http://www.w3.org/2001/XMLSchema-instance" xsi:schemaLocation="http://www.topografix.com/GPX/1/1 http://www.topografix.com/GPX/1/1/gpx.xsd" version="1.1" creator="VisuGPX - https://www.visugpx.com">
  <metadata>
    <name>13802837-LA MINE LE VEILLON</name>
  </metadata>
  <trk>
    <name><![CDATA[13802837-LA MINE LE VEILLON]]></name>
    <trkseg>
      <trkpt lat="46.44684" lon="-1.69569">
        <ele>5</ele>
        <time>2021-10-09T13:43:30Z</time>
      </trkpt>
      <trkpt lat="46.44671" lon="-1.69557">
        <ele>5</ele>
        <time>2021-10-09T13:43:51Z</time>
      </trkpt>
      <trkpt lat="46.44655" lon="-1.69548">
        <ele>4</ele>
        <time>2021-10-09T13:44:13Z</time>
      </trkpt>
      <trkpt lat="46.44647" lon="-1.69533">
        <ele>5</ele>
        <time>2021-10-09T13:44:31Z</time>
      </trkpt>
      <trkpt lat="46.44626" lon="-1.69522">
        <ele>5</ele>
        <time>2021-10-09T13:45:01Z</time>
      </trkpt>
      <trkpt lat="46.44602" lon="-1.69506">
        <ele>5</ele>
        <time>2021-10-09T13:45:36Z</time>
      </trkpt>
      <trkpt lat="46.44589" lon="-1.69488">
        <ele>6</ele>
        <time>2021-10-09T13:46:00Z</time>
      </trkpt>
      <trkpt lat="46.44586" lon="-1.69478">
        <ele>7</ele>
        <time>2021-10-09T13:46:10Z</time>
      </trkpt>
      <trkpt lat="46.44583" lon="-1.69473">
        <ele>7</ele>
        <time>2021-10-09T13:46:16Z</time>
      </trkpt>
      <trkpt lat="46.44578" lon="-1.69471">
        <ele>7</ele>
        <time>2021-10-09T13:46:23Z</time>
      </trkpt>
      <trkpt lat="46.4457" lon="-1.69463">
        <ele>7</ele>
        <time>2021-10-09T13:46:36Z</time>
      </trkpt>
      <trkpt lat="46.44565" lon="-1.69462">
        <ele>7</ele>
        <time>2021-10-09T13:46:43Z</time>
      </trkpt>
      <trkpt lat="46.44541" lon="-1.69467">
        <ele>5</ele>
        <time>2021-10-09T13:47:15Z</time>
      </trkpt>
      <trkpt lat="46.44531" lon="-1.69467">
        <ele>5</ele>
        <time>2021-10-09T13:47:28Z</time>
      </trkpt>
      <trkpt lat="46.44522" lon="-1.69458">
        <ele>5</ele>
        <time>2021-10-09T13:47:43Z</time>
      </trkpt>
      <trkpt lat="46.44518" lon="-1.69451">
        <ele>5</ele>
        <time>2021-10-09T13:47:51Z</time>
      </trkpt>
      <trkpt lat="46.44513" lon="-1.69441">
        <ele>5</ele>
        <time>2021-10-09T13:48:03Z</time>
      </trkpt>
      <trkpt lat="46.44506" lon="-1.69412">
        <ele>7</ele>
        <time>2021-10-09T13:48:31Z</time>
      </trkpt>
      <trkpt lat="46.44502" lon="-1.69403">
        <ele>7</ele>
        <time>2021-10-09T13:48:41Z</time>
      </trkpt>
      <trkpt lat="46.44497" lon="-1.69394">
        <ele>7</ele>
        <time>2021-10-09T13:48:51Z</time>
      </trkpt>
      <trkpt lat="46.44495" lon="-1.69381">
        <ele>7</ele>
        <time>2021-10-09T13:49:04Z</time>
      </trkpt>
      <trkpt lat="46.44489" lon="-1.69368">
        <ele>7</ele>
        <time>2021-10-09T13:49:18Z</time>
      </trkpt>
      <trkpt lat="46.44489" lon="-1.69344">
        <ele>8</ele>
        <time>2021-10-09T13:49:40Z</time>
      </trkpt>
      <trkpt lat="46.44487" lon="-1.69337">
        <ele>8</ele>
        <time>2021-10-09T13:49:47Z</time>
      </trkpt>
      <trkpt lat="46.44479" lon="-1.69325">
        <ele>8</ele>
        <time>2021-10-09T13:50:02Z</time>
      </trkpt>
      <trkpt lat="46.44475" lon="-1.69315">
        <ele>8</ele>
        <time>2021-10-09T13:50:13Z</time>
      </trkpt>
      <trkpt lat="46.44466" lon="-1.69273">
        <ele>9</ele>
        <time>2021-10-09T13:50:54Z</time>
      </trkpt>
      <trkpt lat="46.44447" lon="-1.69232">
        <ele>8</ele>
        <time>2021-10-09T13:51:39Z</time>
      </trkpt>
      <trkpt lat="46.44438" lon="-1.69216">
        <ele>8</ele>
        <time>2021-10-09T13:51:58Z</time>
      </trkpt>
      <trkpt lat="46.44386" lon="-1.69163">
        <ele>7</ele>
        <time>2021-10-09T13:53:23Z</time>
      </trkpt>
      <trkpt lat="46.44368" lon="-1.69118">
        <ele>7</ele>
        <time>2021-10-09T13:54:11Z</time>
      </trkpt>
      <trkpt lat="46.44364" lon="-1.69103">
        <ele>7</ele>
        <time>2021-10-09T13:54:25Z</time>
      </trkpt>
      <trkpt lat="46.44361" lon="-1.69083">
        <ele>8</ele>
        <time>2021-10-09T13:54:44Z</time>
      </trkpt>
      <trkpt lat="46.44341" lon="-1.6902">
        <ele>8</ele>
        <time>2021-10-09T13:55:48Z</time>
      </trkpt>
      <trkpt lat="46.44324" lon="-1.68991">
        <ele>8</ele>
        <time>2021-10-09T13:56:23Z</time>
      </trkpt>
      <trkpt lat="46.44307" lon="-1.68982">
        <ele>7</ele>
        <time>2021-10-09T13:56:47Z</time>
      </trkpt>
      <trkpt lat="46.44302" lon="-1.68965">
        <ele>7</ele>
        <time>2021-10-09T13:57:04Z</time>
      </trkpt>
      <trkpt lat="46.4429" lon="-1.68945">
        <ele>7</ele>
        <time>2021-10-09T13:57:29Z</time>
      </trkpt>
      <trkpt lat="46.44274" lon="-1.689">
        <ele>6</ele>
        <time>2021-10-09T13:58:15Z</time>
      </trkpt>
      <trkpt lat="46.44274" lon="-1.68887">
        <ele>6</ele>
        <time>2021-10-09T13:58:27Z</time>
      </trkpt>
      <trkpt lat="46.44281" lon="-1.68839">
        <ele>8</ele>
        <time>2021-10-09T13:59:12Z</time>
      </trkpt>
      <trkpt lat="46.4429" lon="-1.68818">
        <ele>9</ele>
        <time>2021-10-09T13:59:35Z</time>
      </trkpt>
      <trkpt lat="46.44296" lon="-1.68796">
        <ele>11</ele>
        <time>2021-10-09T13:59:57Z</time>
      </trkpt>
      <trkpt lat="46.44303" lon="-1.68729">
        <ele>13</ele>
        <time>2021-10-09T14:00:59Z</time>
      </trkpt>
      <trkpt lat="46.4431" lon="-1.68677">
        <ele>16</ele>
        <time>2021-10-09T14:01:48Z</time>
      </trkpt>
      <trkpt lat="46.44305" lon="-1.68649">
        <ele>15</ele>
        <time>2021-10-09T14:02:14Z</time>
      </trkpt>
      <trkpt lat="46.44297" lon="-1.68637">
        <ele>14</ele>
        <time>2021-10-09T14:02:30Z</time>
      </trkpt>
      <trkpt lat="46.44293" lon="-1.68624">
        <ele>13</ele>
        <time>2021-10-09T14:02:43Z</time>
      </trkpt>
      <trkpt lat="46.44296" lon="-1.68618">
        <ele>14</ele>
        <time>2021-10-09T14:02:50Z</time>
      </trkpt>
      <trkpt lat="46.44292" lon="-1.68586">
        <ele>14</ele>
        <time>2021-10-09T14:03:19Z</time>
      </trkpt>
      <trkpt lat="46.44277" lon="-1.68567">
        <ele>12</ele>
        <time>2021-10-09T14:03:46Z</time>
      </trkpt>
      <trkpt lat="46.44273" lon="-1.68559">
        <ele>12</ele>
        <time>2021-10-09T14:03:55Z</time>
      </trkpt>
      <trkpt lat="46.44265" lon="-1.68565">
        <ele>11</ele>
        <time>2021-10-09T14:04:07Z</time>
      </trkpt>
      <trkpt lat="46.44264" lon="-1.6855">
        <ele>11</ele>
        <time>2021-10-09T14:04:21Z</time>
      </trkpt>
      <trkpt lat="46.44262" lon="-1.68545">
        <ele>11</ele>
        <time>2021-10-09T14:04:26Z</time>
      </trkpt>
      <trkpt lat="46.4425" lon="-1.68541">
        <ele>10</ele>
        <time>2021-10-09T14:04:43Z</time>
      </trkpt>
      <trkpt lat="46.44234" lon="-1.68529">
        <ele>9</ele>
        <time>2021-10-09T14:05:07Z</time>
      </trkpt>
      <trkpt lat="46.44232" lon="-1.68524">
        <ele>9</ele>
        <time>2021-10-09T14:05:12Z</time>
      </trkpt>
      <trkpt lat="46.44223" lon="-1.68479">
        <ele>9</ele>
        <time>2021-10-09T14:05:55Z</time>
      </trkpt>
      <trkpt lat="46.44216" lon="-1.6846">
        <ele>8</ele>
        <time>2021-10-09T14:06:15Z</time>
      </trkpt>
      <trkpt lat="46.44219" lon="-1.68435">
        <ele>9</ele>
        <time>2021-10-09T14:06:38Z</time>
      </trkpt>
      <trkpt lat="46.44219" lon="-1.68421">
        <ele>9</ele>
        <time>2021-10-09T14:06:51Z</time>
      </trkpt>
      <trkpt lat="46.44213" lon="-1.68387">
        <ele>9</ele>
        <time>2021-10-09T14:07:23Z</time>
      </trkpt>
      <trkpt lat="46.44217" lon="-1.68334">
        <ele>10</ele>
        <time>2021-10-09T14:08:12Z</time>
      </trkpt>
      <trkpt lat="46.44213" lon="-1.68311">
        <ele>10</ele>
        <time>2021-10-09T14:08:34Z</time>
      </trkpt>
      <trkpt lat="46.44209" lon="-1.68295">
        <ele>10</ele>
        <time>2021-10-09T14:08:50Z</time>
      </trkpt>
      <trkpt lat="46.44201" lon="-1.68294">
        <ele>8</ele>
        <time>2021-10-09T14:09:01Z</time>
      </trkpt>
      <trkpt lat="46.44195" lon="-1.68289">
        <ele>8</ele>
        <time>2021-10-09T14:09:10Z</time>
      </trkpt>
      <trkpt lat="46.44187" lon="-1.68268">
        <ele>7</ele>
        <time>2021-10-09T14:09:32Z</time>
      </trkpt>
      <trkpt lat="46.44184" lon="-1.68265">
        <ele>7</ele>
        <time>2021-10-09T14:09:37Z</time>
      </trkpt>
      <trkpt lat="46.4418" lon="-1.68258">
        <ele>6</ele>
        <time>2021-10-09T14:09:45Z</time>
      </trkpt>
      <trkpt lat="46.44173" lon="-1.68237">
        <ele>6</ele>
        <time>2021-10-09T14:10:07Z</time>
      </trkpt>
      <trkpt lat="46.44175" lon="-1.68226">
        <ele>7</ele>
        <time>2021-10-09T14:10:17Z</time>
      </trkpt>
      <trkpt lat="46.44171" lon="-1.68171">
        <ele>8</ele>
        <time>2021-10-09T14:11:08Z</time>
      </trkpt>
      <trkpt lat="46.44158" lon="-1.68118">
        <ele>8</ele>
        <time>2021-10-09T14:12:00Z</time>
      </trkpt>
      <trkpt lat="46.44157" lon="-1.6806">
        <ele>8</ele>
        <time>2021-10-09T14:12:53Z</time>
      </trkpt>
      <trkpt lat="46.44147" lon="-1.68048">
        <ele>8</ele>
        <time>2021-10-09T14:13:10Z</time>
      </trkpt>
      <trkpt lat="46.44146" lon="-1.6804">
        <ele>8</ele>
        <time>2021-10-09T14:13:18Z</time>
      </trkpt>
      <trkpt lat="46.4415" lon="-1.68037">
        <ele>8</ele>
        <time>2021-10-09T14:13:24Z</time>
      </trkpt>
      <trkpt lat="46.44152" lon="-1.68031">
        <ele>8</ele>
        <time>2021-10-09T14:13:30Z</time>
      </trkpt>
      <trkpt lat="46.44151" lon="-1.68013">
        <ele>9</ele>
        <time>2021-10-09T14:13:47Z</time>
      </trkpt>
      <trkpt lat="46.44152" lon="-1.67998">
        <ele>9</ele>
        <time>2021-10-09T14:14:00Z</time>
      </trkpt>
      <trkpt lat="46.44151" lon="-1.67974">
        <ele>9</ele>
        <time>2021-10-09T14:14:23Z</time>
      </trkpt>
      <trkpt lat="46.44152" lon="-1.67924">
        <ele>11</ele>
        <time>2021-10-09T14:15:09Z</time>
      </trkpt>
      <trkpt lat="46.4415" lon="-1.67885">
        <ele>10</ele>
        <time>2021-10-09T14:15:44Z</time>
      </trkpt>
      <trkpt lat="46.44147" lon="-1.67873">
        <ele>10</ele>
        <time>2021-10-09T14:15:56Z</time>
      </trkpt>
      <trkpt lat="46.44141" lon="-1.67855">
        <ele>9</ele>
        <time>2021-10-09T14:16:15Z</time>
      </trkpt>
      <trkpt lat="46.44138" lon="-1.67835">
        <ele>8</ele>
        <time>2021-10-09T14:16:33Z</time>
      </trkpt>
      <trkpt lat="46.44137" lon="-1.67814">
        <ele>8</ele>
        <time>2021-10-09T14:16:53Z</time>
      </trkpt>
      <trkpt lat="46.44144" lon="-1.67772">
        <ele>10</ele>
        <time>2021-10-09T14:17:33Z</time>
      </trkpt>
      <trkpt lat="46.44144" lon="-1.67767">
        <ele>10</ele>
        <time>2021-10-09T14:17:37Z</time>
      </trkpt>
      <trkpt lat="46.4412" lon="-1.67677">
        <ele>8</ele>
        <time>2021-10-09T14:19:06Z</time>
      </trkpt>
      <trkpt lat="46.4412" lon="-1.67666">
        <ele>9</ele>
        <time>2021-10-09T14:19:16Z</time>
      </trkpt>
      <trkpt lat="46.44119" lon="-1.67662">
        <ele>8</ele>
        <time>2021-10-09T14:19:20Z</time>
      </trkpt>
      <trkpt lat="46.44117" lon="-1.6766">
        <ele>8</ele>
        <time>2021-10-09T14:19:23Z</time>
      </trkpt>
      <trkpt lat="46.44114" lon="-1.6766">
        <ele>8</ele>
        <time>2021-10-09T14:19:27Z</time>
      </trkpt>
      <trkpt lat="46.44103" lon="-1.67668">
        <ele>7</ele>
        <time>2021-10-09T14:19:44Z</time>
      </trkpt>
      <trkpt lat="46.44086" lon="-1.67634">
        <ele>6</ele>
        <time>2021-10-09T14:20:22Z</time>
      </trkpt>
      <trkpt lat="46.44082" lon="-1.67618">
        <ele>5</ele>
        <time>2021-10-09T14:20:38Z</time>
      </trkpt>
      <trkpt lat="46.44077" lon="-1.67617">
        <ele>5</ele>
        <time>2021-10-09T14:20:45Z</time>
      </trkpt>
      <trkpt lat="46.44077" lon="-1.6761">
        <ele>5</ele>
        <time>2021-10-09T14:20:51Z</time>
      </trkpt>
      <trkpt lat="46.44067" lon="-1.67598">
        <ele>5</ele>
        <time>2021-10-09T14:21:08Z</time>
      </trkpt>
      <trkpt lat="46.44034" lon="-1.67539">
        <ele>6</ele>
        <time>2021-10-09T14:22:18Z</time>
      </trkpt>
      <trkpt lat="46.43962" lon="-1.6743">
        <ele>5</ele>
        <time>2021-10-09T14:24:37Z</time>
      </trkpt>
      <trkpt lat="46.43956" lon="-1.67426">
        <ele>5</ele>
        <time>2021-10-09T14:24:46Z</time>
      </trkpt>
      <trkpt lat="46.4393" lon="-1.67422">
        <ele>4</ele>
        <time>2021-10-09T14:25:21Z</time>
      </trkpt>
      <trkpt lat="46.43944" lon="-1.67371">
        <ele>7</ele>
        <time>2021-10-09T14:26:11Z</time>
      </trkpt>
      <trkpt lat="46.43928" lon="-1.67369">
        <ele>6</ele>
        <time>2021-10-09T14:26:33Z</time>
      </trkpt>
      <trkpt lat="46.43915" lon="-1.67361">
        <ele>6</ele>
        <time>2021-10-09T14:26:52Z</time>
      </trkpt>
      <trkpt lat="46.43908" lon="-1.67354">
        <ele>6</ele>
        <time>2021-10-09T14:27:03Z</time>
      </trkpt>
      <trkpt lat="46.43896" lon="-1.67334">
        <ele>6</ele>
        <time>2021-10-09T14:27:27Z</time>
      </trkpt>
      <trkpt lat="46.43889" lon="-1.67331">
        <ele>5</ele>
        <time>2021-10-09T14:27:37Z</time>
      </trkpt>
      <trkpt lat="46.43881" lon="-1.67331">
        <ele>5</ele>
        <time>2021-10-09T14:27:48Z</time>
      </trkpt>
      <trkpt lat="46.4387" lon="-1.673">
        <ele>6</ele>
        <time>2021-10-09T14:28:20Z</time>
      </trkpt>
      <trkpt lat="46.43863" lon="-1.67287">
        <ele>6</ele>
        <time>2021-10-09T14:28:35Z</time>
      </trkpt>
      <trkpt lat="46.43834" lon="-1.67259">
        <ele>6</ele>
        <time>2021-10-09T14:29:21Z</time>
      </trkpt>
      <trkpt lat="46.4382" lon="-1.67241">
        <ele>5</ele>
        <time>2021-10-09T14:29:46Z</time>
      </trkpt>
      <trkpt lat="46.43818" lon="-1.67236">
        <ele>5</ele>
        <time>2021-10-09T14:29:52Z</time>
      </trkpt>
      <trkpt lat="46.43822" lon="-1.67231">
        <ele>5</ele>
        <time>2021-10-09T14:29:59Z</time>
      </trkpt>
      <trkpt lat="46.43822" lon="-1.67225">
        <ele>5</ele>
        <time>2021-10-09T14:30:04Z</time>
      </trkpt>
      <trkpt lat="46.43814" lon="-1.67218">
        <ele>5</ele>
        <time>2021-10-09T14:30:17Z</time>
      </trkpt>
      <trkpt lat="46.43813" lon="-1.67214">
        <ele>5</ele>
        <time>2021-10-09T14:30:21Z</time>
      </trkpt>
      <trkpt lat="46.43814" lon="-1.67179">
        <ele>5</ele>
        <time>2021-10-09T14:30:53Z</time>
      </trkpt>
      <trkpt lat="46.43823" lon="-1.67129">
        <ele>7</ele>
        <time>2021-10-09T14:31:40Z</time>
      </trkpt>
      <trkpt lat="46.43826" lon="-1.67108">
        <ele>8</ele>
        <time>2021-10-09T14:32:00Z</time>
      </trkpt>
      <trkpt lat="46.43821" lon="-1.67079">
        <ele>8</ele>
        <time>2021-10-09T14:32:28Z</time>
      </trkpt>
      <trkpt lat="46.4382" lon="-1.67034">
        <ele>8</ele>
        <time>2021-10-09T14:33:09Z</time>
      </trkpt>
      <trkpt lat="46.43808" lon="-1.67004">
        <ele>6</ele>
        <time>2021-10-09T14:33:41Z</time>
      </trkpt>
      <trkpt lat="46.43803" lon="-1.66986">
        <ele>6</ele>
        <time>2021-10-09T14:33:59Z</time>
      </trkpt>
      <trkpt lat="46.43805" lon="-1.66969">
        <ele>6</ele>
        <time>2021-10-09T14:34:15Z</time>
      </trkpt>
      <trkpt lat="46.43801" lon="-1.66957">
        <ele>6</ele>
        <time>2021-10-09T14:34:27Z</time>
      </trkpt>
      <trkpt lat="46.438" lon="-1.66944">
        <ele>6</ele>
        <time>2021-10-09T14:34:39Z</time>
      </trkpt>
      <trkpt lat="46.43797" lon="-1.66933">
        <ele>6</ele>
        <time>2021-10-09T14:34:50Z</time>
      </trkpt>
      <trkpt lat="46.43799" lon="-1.66911">
        <ele>6</ele>
        <time>2021-10-09T14:35:10Z</time>
      </trkpt>
      <trkpt lat="46.43799" lon="-1.66882">
        <ele>6</ele>
        <time>2021-10-09T14:35:37Z</time>
      </trkpt>
      <trkpt lat="46.43803" lon="-1.66866">
        <ele>6</ele>
        <time>2021-10-09T14:35:52Z</time>
      </trkpt>
      <trkpt lat="46.43812" lon="-1.66851">
        <ele>7</ele>
        <time>2021-10-09T14:36:11Z</time>
      </trkpt>
      <trkpt lat="46.4382" lon="-1.66805">
        <ele>8</ele>
        <time>2021-10-09T14:36:54Z</time>
      </trkpt>
      <trkpt lat="46.43821" lon="-1.66781">
        <ele>8</ele>
        <time>2021-10-09T14:37:17Z</time>
      </trkpt>
      <trkpt lat="46.4382" lon="-1.66764">
        <ele>8</ele>
        <time>2021-10-09T14:37:32Z</time>
      </trkpt>
      <trkpt lat="46.43816" lon="-1.6675">
        <ele>7</ele>
        <time>2021-10-09T14:37:46Z</time>
      </trkpt>
      <trkpt lat="46.43803" lon="-1.66725">
        <ele>7</ele>
        <time>2021-10-09T14:38:15Z</time>
      </trkpt>
      <trkpt lat="46.43798" lon="-1.66704">
        <ele>7</ele>
        <time>2021-10-09T14:38:35Z</time>
      </trkpt>
      <trkpt lat="46.43771" lon="-1.66664">
        <ele>5</ele>
        <time>2021-10-09T14:39:27Z</time>
      </trkpt>
      <trkpt lat="46.43764" lon="-1.66649">
        <ele>4</ele>
        <time>2021-10-09T14:39:44Z</time>
      </trkpt>
      <trkpt lat="46.43758" lon="-1.66643">
        <ele>4</ele>
        <time>2021-10-09T14:39:53Z</time>
      </trkpt>
      <trkpt lat="46.43752" lon="-1.6664">
        <ele>3</ele>
        <time>2021-10-09T14:40:02Z</time>
      </trkpt>
      <trkpt lat="46.43747" lon="-1.66631">
        <ele>4</ele>
        <time>2021-10-09T14:40:12Z</time>
      </trkpt>
      <trkpt lat="46.4374" lon="-1.66617">
        <ele>4</ele>
        <time>2021-10-09T14:40:28Z</time>
      </trkpt>
      <trkpt lat="46.43733" lon="-1.66598">
        <ele>5</ele>
        <time>2021-10-09T14:40:48Z</time>
      </trkpt>
      <trkpt lat="46.43716" lon="-1.66573">
        <ele>5</ele>
        <time>2021-10-09T14:41:20Z</time>
      </trkpt>
      <trkpt lat="46.43724" lon="-1.66553">
        <ele>5</ele>
        <time>2021-10-09T14:41:42Z</time>
      </trkpt>
      <trkpt lat="46.43704" lon="-1.66537">
        <ele>5</ele>
        <time>2021-10-09T14:42:12Z</time>
      </trkpt>
      <trkpt lat="46.43696" lon="-1.66533">
        <ele>5</ele>
        <time>2021-10-09T14:42:23Z</time>
      </trkpt>
      <trkpt lat="46.4364" lon="-1.66453">
        <ele>5</ele>
        <time>2021-10-09T14:44:08Z</time>
      </trkpt>
      <trkpt lat="46.43617" lon="-1.66428">
        <ele>5</ele>
        <time>2021-10-09T14:44:47Z</time>
      </trkpt>
      <trkpt lat="46.43595" lon="-1.66414">
        <ele>4</ele>
        <time>2021-10-09T14:45:19Z</time>
      </trkpt>
      <trkpt lat="46.43573" lon="-1.66386">
        <ele>5</ele>
        <time>2021-10-09T14:45:58Z</time>
      </trkpt>
      <trkpt lat="46.43563" lon="-1.6637">
        <ele>6</ele>
        <time>2021-10-09T14:46:18Z</time>
      </trkpt>
      <trkpt lat="46.43532" lon="-1.66349">
        <ele>5</ele>
        <time>2021-10-09T14:47:03Z</time>
      </trkpt>
      <trkpt lat="46.43509" lon="-1.66322">
        <ele>4</ele>
        <time>2021-10-09T14:47:43Z</time>
      </trkpt>
      <trkpt lat="46.43503" lon="-1.66311">
        <ele>4</ele>
        <time>2021-10-09T14:47:56Z</time>
      </trkpt>
      <trkpt lat="46.435" lon="-1.66297">
        <ele>4</ele>
        <time>2021-10-09T14:48:09Z</time>
      </trkpt>
      <trkpt lat="46.43501" lon="-1.66277">
        <ele>5</ele>
        <time>2021-10-09T14:48:28Z</time>
      </trkpt>
      <trkpt lat="46.435" lon="-1.6627">
        <ele>5</ele>
        <time>2021-10-09T14:48:34Z</time>
      </trkpt>
      <trkpt lat="46.43486" lon="-1.66224">
        <ele>6</ele>
        <time>2021-10-09T14:49:20Z</time>
      </trkpt>
      <trkpt lat="46.43482" lon="-1.66198">
        <ele>6</ele>
        <time>2021-10-09T14:49:45Z</time>
      </trkpt>
      <trkpt lat="46.4347" lon="-1.6617">
        <ele>6</ele>
        <time>2021-10-09T14:50:15Z</time>
      </trkpt>
      <trkpt lat="46.43466" lon="-1.66153">
        <ele>6</ele>
        <time>2021-10-09T14:50:32Z</time>
      </trkpt>
      <trkpt lat="46.43464" lon="-1.66137">
        <ele>6</ele>
        <time>2021-10-09T14:50:47Z</time>
      </trkpt>
      <trkpt lat="46.43459" lon="-1.66113">
        <ele>6</ele>
        <time>2021-10-09T14:51:10Z</time>
      </trkpt>
      <trkpt lat="46.43452" lon="-1.66097">
        <ele>5</ele>
        <time>2021-10-09T14:51:27Z</time>
      </trkpt>
      <trkpt lat="46.4345" lon="-1.66083">
        <ele>5</ele>
        <time>2021-10-09T14:51:40Z</time>
      </trkpt>
      <trkpt lat="46.4345" lon="-1.6603">
        <ele>6</ele>
        <time>2021-10-09T14:52:29Z</time>
      </trkpt>
      <trkpt lat="46.43459" lon="-1.66017">
        <ele>7</ele>
        <time>2021-10-09T14:52:46Z</time>
      </trkpt>
      <trkpt lat="46.43478" lon="-1.66012">
        <ele>9</ele>
        <time>2021-10-09T14:53:12Z</time>
      </trkpt>
      <trkpt lat="46.43514" lon="-1.66021">
        <ele>13</ele>
        <time>2021-10-09T14:54:01Z</time>
      </trkpt>
      <trkpt lat="46.43528" lon="-1.66018">
        <ele>14</ele>
        <time>2021-10-09T14:54:19Z</time>
      </trkpt>
      <trkpt lat="46.43526" lon="-1.65987">
        <ele>13</ele>
        <time>2021-10-09T14:54:48Z</time>
      </trkpt>
      <trkpt lat="46.43537" lon="-1.65954">
        <ele>13</ele>
        <time>2021-10-09T14:55:22Z</time>
      </trkpt>
      <trkpt lat="46.43542" lon="-1.65957">
        <ele>13</ele>
        <time>2021-10-09T14:55:29Z</time>
      </trkpt>
      <trkpt lat="46.43556" lon="-1.65895">
        <ele>13</ele>
        <time>2021-10-09T14:56:29Z</time>
      </trkpt>
      <trkpt lat="46.43562" lon="-1.65894">
        <ele>13</ele>
        <time>2021-10-09T14:56:37Z</time>
      </trkpt>
      <trkpt lat="46.43565" lon="-1.65885">
        <ele>14</ele>
        <time>2021-10-09T14:56:46Z</time>
      </trkpt>
      <trkpt lat="46.43563" lon="-1.65881">
        <ele>14</ele>
        <time>2021-10-09T14:56:51Z</time>
      </trkpt>
      <trkpt lat="46.43565" lon="-1.65885">
        <ele>14</ele>
        <time>2021-10-09T14:56:55Z</time>
      </trkpt>
      <trkpt lat="46.43574" lon="-1.65881">
        <ele>14</ele>
        <time>2021-10-09T14:57:08Z</time>
      </trkpt>
      <trkpt lat="46.43591" lon="-1.65878">
        <ele>15</ele>
        <time>2021-10-09T14:57:31Z</time>
      </trkpt>
      <trkpt lat="46.43591" lon="-1.65869">
        <ele>15</ele>
        <time>2021-10-09T14:57:39Z</time>
      </trkpt>
      <trkpt lat="46.43629" lon="-1.65868">
        <ele>17</ele>
        <time>2021-10-09T14:58:30Z</time>
      </trkpt>
      <trkpt lat="46.4369" lon="-1.6586">
        <ele>19</ele>
        <time>2021-10-09T14:59:51Z</time>
      </trkpt>
      <trkpt lat="46.43708" lon="-1.65859">
        <ele>19</ele>
        <time>2021-10-09T15:00:16Z</time>
      </trkpt>
      <trkpt lat="46.43722" lon="-1.65861">
        <ele>19</ele>
        <time>2021-10-09T15:00:34Z</time>
      </trkpt>
      <trkpt lat="46.43741" lon="-1.65874">
        <ele>18</ele>
        <time>2021-10-09T15:01:02Z</time>
      </trkpt>
      <trkpt lat="46.43821" lon="-1.65946">
        <ele>16</ele>
        <time>2021-10-09T15:03:08Z</time>
      </trkpt>
      <trkpt lat="46.43834" lon="-1.65961">
        <ele>15</ele>
        <time>2021-10-09T15:03:30Z</time>
      </trkpt>
      <trkpt lat="46.43895" lon="-1.66049">
        <ele>17</ele>
        <time>2021-10-09T15:05:25Z</time>
      </trkpt>
      <trkpt lat="46.43912" lon="-1.66081">
        <ele>18</ele>
        <time>2021-10-09T15:06:02Z</time>
      </trkpt>
      <trkpt lat="46.43978" lon="-1.66215">
        <ele>13</ele>
        <time>2021-10-09T15:08:34Z</time>
      </trkpt>
      <trkpt lat="46.4398" lon="-1.66213">
        <ele>13</ele>
        <time>2021-10-09T15:08:37Z</time>
      </trkpt>
      <trkpt lat="46.43989" lon="-1.6623">
        <ele>12</ele>
        <time>2021-10-09T15:08:56Z</time>
      </trkpt>
      <trkpt lat="46.43994" lon="-1.6624">
        <ele>12</ele>
        <time>2021-10-09T15:09:08Z</time>
      </trkpt>
      <trkpt lat="46.44002" lon="-1.66224">
        <ele>12</ele>
        <time>2021-10-09T15:09:26Z</time>
      </trkpt>
      <trkpt lat="46.44039" lon="-1.6604">
        <ele>14</ele>
        <time>2021-10-09T15:12:22Z</time>
      </trkpt>
      <trkpt lat="46.4404" lon="-1.65995">
        <ele>14</ele>
        <time>2021-10-09T15:13:04Z</time>
      </trkpt>
      <trkpt lat="46.44036" lon="-1.65961">
        <ele>14</ele>
        <time>2021-10-09T15:13:35Z</time>
      </trkpt>
      <trkpt lat="46.44021" lon="-1.65904">
        <ele>15</ele>
        <time>2021-10-09T15:14:31Z</time>
      </trkpt>
      <trkpt lat="46.44014" lon="-1.65865">
        <ele>16</ele>
        <time>2021-10-09T15:15:09Z</time>
      </trkpt>
      <trkpt lat="46.44005" lon="-1.65594">
        <ele>16</ele>
        <time>2021-10-09T15:19:18Z</time>
      </trkpt>
      <trkpt lat="46.44007" lon="-1.65533">
        <ele>16</ele>
        <time>2021-10-09T15:20:14Z</time>
      </trkpt>
      <trkpt lat="46.44018" lon="-1.65475">
        <ele>15</ele>
        <time>2021-10-09T15:21:10Z</time>
      </trkpt>
      <trkpt lat="46.44014" lon="-1.65476">
        <ele>15</ele>
        <time>2021-10-09T15:21:15Z</time>
      </trkpt>
      <trkpt lat="46.43884" lon="-1.65568">
        <ele>21</ele>
        <time>2021-10-09T15:24:28Z</time>
      </trkpt>
      <trkpt lat="46.44014" lon="-1.65476">
        <ele>15</ele>
        <time>2021-10-09T15:27:41Z</time>
      </trkpt>
      <trkpt lat="46.44018" lon="-1.65475">
        <ele>15</ele>
        <time>2021-10-09T15:27:46Z</time>
      </trkpt>
      <trkpt lat="46.44029" lon="-1.65347">
        <ele>14</ele>
        <time>2021-10-09T15:29:45Z</time>
      </trkpt>
      <trkpt lat="46.4403" lon="-1.65277">
        <ele>12</ele>
        <time>2021-10-09T15:30:49Z</time>
      </trkpt>
      <trkpt lat="46.44032" lon="-1.65267">
        <ele>12</ele>
        <time>2021-10-09T15:30:59Z</time>
      </trkpt>
      <trkpt lat="46.44037" lon="-1.65261">
        <ele>11</ele>
        <time>2021-10-09T15:31:08Z</time>
      </trkpt>
      <trkpt lat="46.44044" lon="-1.65258">
        <ele>10</ele>
        <time>2021-10-09T15:31:17Z</time>
      </trkpt>
      <trkpt lat="46.44074" lon="-1.65247">
        <ele>5</ele>
        <time>2021-10-09T15:31:59Z</time>
      </trkpt>
      <trkpt lat="46.4411" lon="-1.65223">
        <ele>2</ele>
        <time>2021-10-09T15:32:52Z</time>
      </trkpt>
      <trkpt lat="46.44168" lon="-1.65164">
        <ele>3</ele>
        <time>2021-10-09T15:34:26Z</time>
      </trkpt>
      <trkpt lat="46.44224" lon="-1.65123">
        <ele>1</ele>
        <time>2021-10-09T15:35:50Z</time>
      </trkpt>
      <trkpt lat="46.44227" lon="-1.65117">
        <ele>1</ele>
        <time>2021-10-09T15:35:57Z</time>
      </trkpt>
      <trkpt lat="46.44231" lon="-1.65103">
        <ele>1</ele>
        <time>2021-10-09T15:36:11Z</time>
      </trkpt>
      <trkpt lat="46.44237" lon="-1.65088">
        <ele>2</ele>
        <time>2021-10-09T15:36:26Z</time>
      </trkpt>
      <trkpt lat="46.44245" lon="-1.6508">
        <ele>2</ele>
        <time>2021-10-09T15:36:39Z</time>
      </trkpt>
      <trkpt lat="46.44252" lon="-1.65077">
        <ele>2</ele>
        <time>2021-10-09T15:36:49Z</time>
      </trkpt>
      <trkpt lat="46.44259" lon="-1.65062">
        <ele>2</ele>
        <time>2021-10-09T15:37:06Z</time>
      </trkpt>
      <trkpt lat="46.44262" lon="-1.65029">
        <ele>2</ele>
        <time>2021-10-09T15:37:36Z</time>
      </trkpt>
      <trkpt lat="46.44265" lon="-1.65017">
        <ele>3</ele>
        <time>2021-10-09T15:37:48Z</time>
      </trkpt>
      <trkpt lat="46.44295" lon="-1.64939">
        <ele>3</ele>
        <time>2021-10-09T15:39:10Z</time>
      </trkpt>
      <trkpt lat="46.44309" lon="-1.64889">
        <ele>3</ele>
        <time>2021-10-09T15:40:00Z</time>
      </trkpt>
      <trkpt lat="46.4431" lon="-1.64819">
        <ele>1</ele>
        <time>2021-10-09T15:41:04Z</time>
      </trkpt>
      <trkpt lat="46.44311" lon="-1.64816">
        <ele>1</ele>
        <time>2021-10-09T15:41:07Z</time>
      </trkpt>
      <trkpt lat="46.44317" lon="-1.64808">
        <ele>1</ele>
        <time>2021-10-09T15:41:18Z</time>
      </trkpt>
      <trkpt lat="46.44321" lon="-1.64807">
        <ele>1</ele>
        <time>2021-10-09T15:41:24Z</time>
      </trkpt>
      <trkpt lat="46.44412" lon="-1.64833">
        <ele>2</ele>
        <time>2021-10-09T15:43:27Z</time>
      </trkpt>
      <trkpt lat="46.44502" lon="-1.64868">
        <ele>4</ele>
        <time>2021-10-09T15:45:32Z</time>
      </trkpt>
      <trkpt lat="46.44559" lon="-1.64864">
        <ele>3</ele>
        <time>2021-10-09T15:46:48Z</time>
      </trkpt>
      <trkpt lat="46.44588" lon="-1.6486">
        <ele>3</ele>
        <time>2021-10-09T15:47:27Z</time>
      </trkpt>
      <trkpt lat="46.44612" lon="-1.64859">
        <ele>3</ele>
        <time>2021-10-09T15:47:59Z</time>
      </trkpt>
      <trkpt lat="46.44634" lon="-1.64862">
        <ele>3</ele>
        <time>2021-10-09T15:48:28Z</time>
      </trkpt>
      <trkpt lat="46.4466" lon="-1.64855">
        <ele>2</ele>
        <time>2021-10-09T15:49:04Z</time>
      </trkpt>
      <trkpt lat="46.44667" lon="-1.64843">
        <ele>1</ele>
        <time>2021-10-09T15:49:18Z</time>
      </trkpt>
      <trkpt lat="46.44686" lon="-1.64842">
        <ele>1</ele>
        <time>2021-10-09T15:49:43Z</time>
      </trkpt>
      <trkpt lat="46.44701" lon="-1.64847">
        <ele>1</ele>
        <time>2021-10-09T15:50:04Z</time>
      </trkpt>
      <trkpt lat="46.44743" lon="-1.64853">
        <ele>1</ele>
        <time>2021-10-09T15:51:00Z</time>
      </trkpt>
      <trkpt lat="46.4476" lon="-1.64859">
        <ele>2</ele>
        <time>2021-10-09T15:51:24Z</time>
      </trkpt>
      <trkpt lat="46.44793" lon="-1.64925">
        <ele>3</ele>
        <time>2021-10-09T15:52:39Z</time>
      </trkpt>
      <trkpt lat="46.44807" lon="-1.64944">
        <ele>3</ele>
        <time>2021-10-09T15:53:04Z</time>
      </trkpt>
      <trkpt lat="46.44818" lon="-1.64951">
        <ele>3</ele>
        <time>2021-10-09T15:53:20Z</time>
      </trkpt>
      <trkpt lat="46.4485" lon="-1.64953">
        <ele>2</ele>
        <time>2021-10-09T15:54:03Z</time>
      </trkpt>
      <trkpt lat="46.44866" lon="-1.64961">
        <ele>2</ele>
        <time>2021-10-09T15:54:26Z</time>
      </trkpt>
      <trkpt lat="46.44885" lon="-1.64977">
        <ele>2</ele>
        <time>2021-10-09T15:54:55Z</time>
      </trkpt>
      <trkpt lat="46.44902" lon="-1.65001">
        <ele>2</ele>
        <time>2021-10-09T15:55:27Z</time>
      </trkpt>
      <trkpt lat="46.44942" lon="-1.65085">
        <ele>3</ele>
        <time>2021-10-09T15:57:00Z</time>
      </trkpt>
      <trkpt lat="46.44955" lon="-1.65103">
        <ele>3</ele>
        <time>2021-10-09T15:57:24Z</time>
      </trkpt>
      <trkpt lat="46.44994" lon="-1.65143">
        <ele>3</ele>
        <time>2021-10-09T15:58:28Z</time>
      </trkpt>
      <trkpt lat="46.44996" lon="-1.65151">
        <ele>3</ele>
        <time>2021-10-09T15:58:36Z</time>
      </trkpt>
      <trkpt lat="46.45005" lon="-1.65162">
        <ele>3</ele>
        <time>2021-10-09T15:58:52Z</time>
      </trkpt>
      <trkpt lat="46.45009" lon="-1.6517">
        <ele>3</ele>
        <time>2021-10-09T15:59:01Z</time>
      </trkpt>
      <trkpt lat="46.45019" lon="-1.65206">
        <ele>3</ele>
        <time>2021-10-09T15:59:36Z</time>
      </trkpt>
      <trkpt lat="46.45028" lon="-1.65226">
        <ele>4</ele>
        <time>2021-10-09T15:59:58Z</time>
      </trkpt>
      <trkpt lat="46.45066" lon="-1.65283">
        <ele>5</ele>
        <time>2021-10-09T16:01:11Z</time>
      </trkpt>
      <trkpt lat="46.45074" lon="-1.65292">
        <ele>5</ele>
        <time>2021-10-09T16:01:25Z</time>
      </trkpt>
      <trkpt lat="46.45086" lon="-1.65301">
        <ele>5</ele>
        <time>2021-10-09T16:01:43Z</time>
      </trkpt>
      <trkpt lat="46.45095" lon="-1.65343">
        <ele>6</ele>
        <time>2021-10-09T16:02:23Z</time>
      </trkpt>
      <trkpt lat="46.45105" lon="-1.6538">
        <ele>7</ele>
        <time>2021-10-09T16:03:00Z</time>
      </trkpt>
      <trkpt lat="46.4511" lon="-1.65431">
        <ele>7</ele>
        <time>2021-10-09T16:03:47Z</time>
      </trkpt>
      <trkpt lat="46.45115" lon="-1.65536">
        <ele>10</ele>
        <time>2021-10-09T16:05:24Z</time>
      </trkpt>
      <trkpt lat="46.45118" lon="-1.65573">
        <ele>10</ele>
        <time>2021-10-09T16:05:58Z</time>
      </trkpt>
      <trkpt lat="46.4511" lon="-1.65586">
        <ele>11</ele>
        <time>2021-10-09T16:06:14Z</time>
      </trkpt>
      <trkpt lat="46.45092" lon="-1.656">
        <ele>11</ele>
        <time>2021-10-09T16:06:41Z</time>
      </trkpt>
      <trkpt lat="46.45052" lon="-1.65612">
        <ele>11</ele>
        <time>2021-10-09T16:07:36Z</time>
      </trkpt>
      <trkpt lat="46.45023" lon="-1.65626">
        <ele>11</ele>
        <time>2021-10-09T16:08:17Z</time>
      </trkpt>
      <trkpt lat="46.44993" lon="-1.65661">
        <ele>11</ele>
        <time>2021-10-09T16:09:08Z</time>
      </trkpt>
      <trkpt lat="46.44966" lon="-1.65667">
        <ele>11</ele>
        <time>2021-10-09T16:09:45Z</time>
      </trkpt>
      <trkpt lat="46.44949" lon="-1.65675">
        <ele>11</ele>
        <time>2021-10-09T16:10:08Z</time>
      </trkpt>
      <trkpt lat="46.44938" lon="-1.65684">
        <ele>11</ele>
        <time>2021-10-09T16:10:25Z</time>
      </trkpt>
      <trkpt lat="46.44929" lon="-1.65699">
        <ele>10</ele>
        <time>2021-10-09T16:10:44Z</time>
      </trkpt>
      <trkpt lat="46.44916" lon="-1.65733">
        <ele>9</ele>
        <time>2021-10-09T16:11:19Z</time>
      </trkpt>
      <trkpt lat="46.44905" lon="-1.65771">
        <ele>8</ele>
        <time>2021-10-09T16:11:57Z</time>
      </trkpt>
      <trkpt lat="46.44904" lon="-1.65789">
        <ele>8</ele>
        <time>2021-10-09T16:12:14Z</time>
      </trkpt>
      <trkpt lat="46.44902" lon="-1.6592">
        <ele>6</ele>
        <time>2021-10-09T16:14:14Z</time>
      </trkpt>
      <trkpt lat="46.44905" lon="-1.65948">
        <ele>6</ele>
        <time>2021-10-09T16:14:40Z</time>
      </trkpt>
      <trkpt lat="46.4491" lon="-1.65978">
        <ele>6</ele>
        <time>2021-10-09T16:15:09Z</time>
      </trkpt>
      <trkpt lat="46.44911" lon="-1.65995">
        <ele>6</ele>
        <time>2021-10-09T16:15:24Z</time>
      </trkpt>
      <trkpt lat="46.44908" lon="-1.66015">
        <ele>5</ele>
        <time>2021-10-09T16:15:43Z</time>
      </trkpt>
      <trkpt lat="46.44896" lon="-1.66056">
        <ele>4</ele>
        <time>2021-10-09T16:16:24Z</time>
      </trkpt>
      <trkpt lat="46.44876" lon="-1.66068">
        <ele>4</ele>
        <time>2021-10-09T16:16:53Z</time>
      </trkpt>
      <trkpt lat="46.44867" lon="-1.66083">
        <ele>3</ele>
        <time>2021-10-09T16:17:11Z</time>
      </trkpt>
      <trkpt lat="46.44876" lon="-1.66068">
        <ele>4</ele>
        <time>2021-10-09T16:17:30Z</time>
      </trkpt>
      <trkpt lat="46.44896" lon="-1.66056">
        <ele>4</ele>
        <time>2021-10-09T16:17:59Z</time>
      </trkpt>
      <trkpt lat="46.449" lon="-1.66058">
        <ele>4</ele>
        <time>2021-10-09T16:18:04Z</time>
      </trkpt>
      <trkpt lat="46.44938" lon="-1.66057">
        <ele>6</ele>
        <time>2021-10-09T16:18:55Z</time>
      </trkpt>
      <trkpt lat="46.44954" lon="-1.66072">
        <ele>6</ele>
        <time>2021-10-09T16:19:20Z</time>
      </trkpt>
      <trkpt lat="46.44971" lon="-1.66079">
        <ele>7</ele>
        <time>2021-10-09T16:19:44Z</time>
      </trkpt>
      <trkpt lat="46.45053" lon="-1.66089">
        <ele>10</ele>
        <time>2021-10-09T16:21:34Z</time>
      </trkpt>
      <trkpt lat="46.45176" lon="-1.66092">
        <ele>13</ele>
        <time>2021-10-09T16:24:18Z</time>
      </trkpt>
      <trkpt lat="46.45198" lon="-1.66088">
        <ele>14</ele>
        <time>2021-10-09T16:24:47Z</time>
      </trkpt>
      <trkpt lat="46.45224" lon="-1.66071">
        <ele>14</ele>
        <time>2021-10-09T16:25:26Z</time>
      </trkpt>
      <trkpt lat="46.45256" lon="-1.66042">
        <ele>15</ele>
        <time>2021-10-09T16:26:16Z</time>
      </trkpt>
      <trkpt lat="46.45291" lon="-1.66014">
        <ele>16</ele>
        <time>2021-10-09T16:27:09Z</time>
      </trkpt>
      <trkpt lat="46.45276" lon="-1.66105">
        <ele>16</ele>
        <time>2021-10-09T16:28:35Z</time>
      </trkpt>
      <trkpt lat="46.45274" lon="-1.66159">
        <ele>15</ele>
        <time>2021-10-09T16:29:25Z</time>
      </trkpt>
      <trkpt lat="46.45279" lon="-1.66223">
        <ele>14</ele>
        <time>2021-10-09T16:30:24Z</time>
      </trkpt>
      <trkpt lat="46.45284" lon="-1.66234">
        <ele>14</ele>
        <time>2021-10-09T16:30:36Z</time>
      </trkpt>
      <trkpt lat="46.45274" lon="-1.66251">
        <ele>13</ele>
        <time>2021-10-09T16:30:57Z</time>
      </trkpt>
      <trkpt lat="46.45259" lon="-1.66281">
        <ele>11</ele>
        <time>2021-10-09T16:31:31Z</time>
      </trkpt>
      <trkpt lat="46.45217" lon="-1.66403">
        <ele>4</ele>
        <time>2021-10-09T16:33:36Z</time>
      </trkpt>
      <trkpt lat="46.45195" lon="-1.66442">
        <ele>5</ele>
        <time>2021-10-09T16:34:23Z</time>
      </trkpt>
      <trkpt lat="46.45167" lon="-1.66476">
        <ele>6</ele>
        <time>2021-10-09T16:35:11Z</time>
      </trkpt>
      <trkpt lat="46.45155" lon="-1.66486">
        <ele>7</ele>
        <time>2021-10-09T16:35:30Z</time>
      </trkpt>
      <trkpt lat="46.4514" lon="-1.66497">
        <ele>8</ele>
        <time>2021-10-09T16:35:52Z</time>
      </trkpt>
      <trkpt lat="46.45086" lon="-1.66526">
        <ele>13</ele>
        <time>2021-10-09T16:37:09Z</time>
      </trkpt>
      <trkpt lat="46.45097" lon="-1.66557">
        <ele>14</ele>
        <time>2021-10-09T16:37:41Z</time>
      </trkpt>
      <trkpt lat="46.45111" lon="-1.66586">
        <ele>15</ele>
        <time>2021-10-09T16:38:14Z</time>
      </trkpt>
      <trkpt lat="46.45164" lon="-1.66758">
        <ele>15</ele>
        <time>2021-10-09T16:41:07Z</time>
      </trkpt>
      <trkpt lat="46.45196" lon="-1.66823">
        <ele>14</ele>
        <time>2021-10-09T16:42:20Z</time>
      </trkpt>
      <trkpt lat="46.45212" lon="-1.66858">
        <ele>15</ele>
        <time>2021-10-09T16:42:59Z</time>
      </trkpt>
      <trkpt lat="46.45225" lon="-1.66904">
        <ele>15</ele>
        <time>2021-10-09T16:43:45Z</time>
      </trkpt>
      <trkpt lat="46.45236" lon="-1.66961">
        <ele>16</ele>
        <time>2021-10-09T16:44:39Z</time>
      </trkpt>
      <trkpt lat="46.45241" lon="-1.67015">
        <ele>17</ele>
        <time>2021-10-09T16:45:29Z</time>
      </trkpt>
      <trkpt lat="46.4524" lon="-1.67093">
        <ele>18</ele>
        <time>2021-10-09T16:46:41Z</time>
      </trkpt>
      <trkpt lat="46.45232" lon="-1.67243">
        <ele>19</ele>
        <time>2021-10-09T16:48:59Z</time>
      </trkpt>
      <trkpt lat="46.45229" lon="-1.67359">
        <ele>20</ele>
        <time>2021-10-09T16:50:46Z</time>
      </trkpt>
      <trkpt lat="46.45231" lon="-1.67401">
        <ele>21</ele>
        <time>2021-10-09T16:51:25Z</time>
      </trkpt>
      <trkpt lat="46.4528" lon="-1.67629">
        <ele>23</ele>
        <time>2021-10-09T16:55:04Z</time>
      </trkpt>
      <trkpt lat="46.45297" lon="-1.67688">
        <ele>22</ele>
        <time>2021-10-09T16:56:03Z</time>
      </trkpt>
      <trkpt lat="46.45374" lon="-1.67684">
        <ele>22</ele>
        <time>2021-10-09T16:57:46Z</time>
      </trkpt>
      <trkpt lat="46.45488" lon="-1.67687">
        <ele>22</ele>
        <time>2021-10-09T17:00:18Z</time>
      </trkpt>
      <trkpt lat="46.45526" lon="-1.67681">
        <ele>22</ele>
        <time>2021-10-09T17:01:09Z</time>
      </trkpt>
      <trkpt lat="46.45571" lon="-1.67665">
        <ele>23</ele>
        <time>2021-10-09T17:02:11Z</time>
      </trkpt>
      <trkpt lat="46.45659" lon="-1.67622">
        <ele>23</ele>
        <time>2021-10-09T17:04:15Z</time>
      </trkpt>
      <trkpt lat="46.45686" lon="-1.67616">
        <ele>23</ele>
        <time>2021-10-09T17:04:51Z</time>
      </trkpt>
      <trkpt lat="46.45731" lon="-1.67629">
        <ele>24</ele>
        <time>2021-10-09T17:05:52Z</time>
      </trkpt>
      <trkpt lat="46.45801" lon="-1.67636">
        <ele>24</ele>
        <time>2021-10-09T17:07:26Z</time>
      </trkpt>
      <trkpt lat="46.45839" lon="-1.67643">
        <ele>25</ele>
        <time>2021-10-09T17:08:17Z</time>
      </trkpt>
      <trkpt lat="46.45864" lon="-1.67656">
        <ele>25</ele>
        <time>2021-10-09T17:08:53Z</time>
      </trkpt>
      <trkpt lat="46.45888" lon="-1.67665">
        <ele>25</ele>
        <time>2021-10-09T17:09:26Z</time>
      </trkpt>
      <trkpt lat="46.45938" lon="-1.67664">
        <ele>25</ele>
        <time>2021-10-09T17:10:32Z</time>
      </trkpt>
      <trkpt lat="46.45996" lon="-1.67667">
        <ele>27</ele>
        <time>2021-10-09T17:11:50Z</time>
      </trkpt>
      <trkpt lat="46.46023" lon="-1.67671">
        <ele>27</ele>
        <time>2021-10-09T17:12:26Z</time>
      </trkpt>
      <trkpt lat="46.4609" lon="-1.67668">
        <ele>26</ele>
        <time>2021-10-09T17:13:56Z</time>
      </trkpt>
      <trkpt lat="46.46129" lon="-1.67677">
        <ele>27</ele>
        <time>2021-10-09T17:14:48Z</time>
      </trkpt>
      <trkpt lat="46.46106" lon="-1.67774">
        <ele>27</ele>
        <time>2021-10-09T17:16:23Z</time>
      </trkpt>
      <trkpt lat="46.46059" lon="-1.67928">
        <ele>25</ele>
        <time>2021-10-09T17:18:57Z</time>
      </trkpt>
      <trkpt lat="46.46038" lon="-1.68018">
        <ele>25</ele>
        <time>2021-10-09T17:20:25Z</time>
      </trkpt>
      <trkpt lat="46.45997" lon="-1.68176">
        <ele>24</ele>
        <time>2021-10-09T17:23:00Z</time>
      </trkpt>
      <trkpt lat="46.45993" lon="-1.68224">
        <ele>24</ele>
        <time>2021-10-09T17:23:44Z</time>
      </trkpt>
      <trkpt lat="46.4597" lon="-1.68205">
        <ele>24</ele>
        <time>2021-10-09T17:24:20Z</time>
      </trkpt>
      <trkpt lat="46.45937" lon="-1.68164">
        <ele>24</ele>
        <time>2021-10-09T17:25:18Z</time>
      </trkpt>
      <trkpt lat="46.45919" lon="-1.68138">
        <ele>24</ele>
        <time>2021-10-09T17:25:52Z</time>
      </trkpt>
      <trkpt lat="46.45909" lon="-1.6811">
        <ele>24</ele>
        <time>2021-10-09T17:26:21Z</time>
      </trkpt>
      <trkpt lat="46.45899" lon="-1.68076">
        <ele>24</ele>
        <time>2021-10-09T17:26:55Z</time>
      </trkpt>
      <trkpt lat="46.4588" lon="-1.68058">
        <ele>24</ele>
        <time>2021-10-09T17:27:25Z</time>
      </trkpt>
      <trkpt lat="46.45853" lon="-1.68049">
        <ele>24</ele>
        <time>2021-10-09T17:28:02Z</time>
      </trkpt>
      <trkpt lat="46.45822" lon="-1.68042">
        <ele>24</ele>
        <time>2021-10-09T17:28:44Z</time>
      </trkpt>
      <trkpt lat="46.45787" lon="-1.68025">
        <ele>23</ele>
        <time>2021-10-09T17:29:33Z</time>
      </trkpt>
      <trkpt lat="46.45776" lon="-1.68022">
        <ele>23</ele>
        <time>2021-10-09T17:29:48Z</time>
      </trkpt>
      <trkpt lat="46.45768" lon="-1.6803">
        <ele>22</ele>
        <time>2021-10-09T17:30:01Z</time>
      </trkpt>
      <trkpt lat="46.45638" lon="-1.68199">
        <ele>23</ele>
        <time>2021-10-09T17:33:54Z</time>
      </trkpt>
      <trkpt lat="46.45616" lon="-1.68214">
        <ele>23</ele>
        <time>2021-10-09T17:34:26Z</time>
      </trkpt>
      <trkpt lat="46.45633" lon="-1.68264">
        <ele>23</ele>
        <time>2021-10-09T17:35:17Z</time>
      </trkpt>
      <trkpt lat="46.45648" lon="-1.68348">
        <ele>21</ele>
        <time>2021-10-09T17:36:37Z</time>
      </trkpt>
      <trkpt lat="46.45682" lon="-1.68473">
        <ele>19</ele>
        <time>2021-10-09T17:38:41Z</time>
      </trkpt>
      <trkpt lat="46.45703" lon="-1.6853">
        <ele>18</ele>
        <time>2021-10-09T17:39:40Z</time>
      </trkpt>
      <trkpt lat="46.45744" lon="-1.68612">
        <ele>18</ele>
        <time>2021-10-09T17:41:13Z</time>
      </trkpt>
      <trkpt lat="46.45782" lon="-1.68677">
        <ele>19</ele>
        <time>2021-10-09T17:42:32Z</time>
      </trkpt>
      <trkpt lat="46.45824" lon="-1.68784">
        <ele>21</ele>
        <time>2021-10-09T17:44:25Z</time>
      </trkpt>
      <trkpt lat="46.45852" lon="-1.68871">
        <ele>22</ele>
        <time>2021-10-09T17:45:53Z</time>
      </trkpt>
      <trkpt lat="46.45866" lon="-1.68942">
        <ele>22</ele>
        <time>2021-10-09T17:47:01Z</time>
      </trkpt>
      <trkpt lat="46.45905" lon="-1.6909">
        <ele>23</ele>
        <time>2021-10-09T17:49:27Z</time>
      </trkpt>
      <trkpt lat="46.45913" lon="-1.69119">
        <ele>24</ele>
        <time>2021-10-09T17:49:55Z</time>
      </trkpt>
      <trkpt lat="46.45934" lon="-1.69173">
        <ele>25</ele>
        <time>2021-10-09T17:50:52Z</time>
      </trkpt>
      <trkpt lat="46.45941" lon="-1.69244">
        <ele>24</ele>
        <time>2021-10-09T17:51:58Z</time>
      </trkpt>
      <trkpt lat="46.46011" lon="-1.69213">
        <ele>24</ele>
        <time>2021-10-09T17:53:36Z</time>
      </trkpt>
      <trkpt lat="46.46069" lon="-1.69169">
        <ele>25</ele>
        <time>2021-10-09T17:55:03Z</time>
      </trkpt>
      <trkpt lat="46.461" lon="-1.69131">
        <ele>25</ele>
        <time>2021-10-09T17:55:57Z</time>
      </trkpt>
      <trkpt lat="46.46096" lon="-1.69123">
        <ele>25</ele>
        <time>2021-10-09T17:56:07Z</time>
      </trkpt>
      <trkpt lat="46.461" lon="-1.69131">
        <ele>25</ele>
        <time>2021-10-09T17:56:16Z</time>
      </trkpt>
      <trkpt lat="46.46092" lon="-1.69141">
        <ele>25</ele>
        <time>2021-10-09T17:56:30Z</time>
      </trkpt>
      <trkpt lat="46.46098" lon="-1.69159">
        <ele>25</ele>
        <time>2021-10-09T17:56:48Z</time>
      </trkpt>
      <trkpt lat="46.46117" lon="-1.69259">
        <ele>25</ele>
        <time>2021-10-09T17:58:23Z</time>
      </trkpt>
      <trkpt lat="46.46119" lon="-1.69305">
        <ele>25</ele>
        <time>2021-10-09T17:59:06Z</time>
      </trkpt>
      <trkpt lat="46.46117" lon="-1.69359">
        <ele>25</ele>
        <time>2021-10-09T17:59:56Z</time>
      </trkpt>
      <trkpt lat="46.46122" lon="-1.69449">
        <ele>25</ele>
        <time>2021-10-09T18:01:19Z</time>
      </trkpt>
      <trkpt lat="46.46125" lon="-1.69505">
        <ele>25</ele>
        <time>2021-10-09T18:02:10Z</time>
      </trkpt>
      <trkpt lat="46.46121" lon="-1.6954">
        <ele>25</ele>
        <time>2021-10-09T18:02:43Z</time>
      </trkpt>
      <trkpt lat="46.46092" lon="-1.69616">
        <ele>24</ele>
        <time>2021-10-09T18:04:03Z</time>
      </trkpt>
      <trkpt lat="46.46067" lon="-1.69701">
        <ele>22</ele>
        <time>2021-10-09T18:05:28Z</time>
      </trkpt>
      <trkpt lat="46.46052" lon="-1.69806">
        <ele>21</ele>
        <time>2021-10-09T18:07:06Z</time>
      </trkpt>
      <trkpt lat="46.46054" lon="-1.70085">
        <ele>23</ele>
        <time>2021-10-09T18:11:23Z</time>
      </trkpt>
      <trkpt lat="46.46142" lon="-1.70319">
        <ele>22</ele>
        <time>2021-10-09T18:15:28Z</time>
      </trkpt>
      <trkpt lat="46.46144" lon="-1.70357">
        <ele>22</ele>
        <time>2021-10-09T18:16:03Z</time>
      </trkpt>
      <trkpt lat="46.4606" lon="-1.70349">
        <ele>24</ele>
        <time>2021-10-09T18:17:55Z</time>
      </trkpt>
      <trkpt lat="46.46005" lon="-1.70348">
        <ele>25</ele>
        <time>2021-10-09T18:19:09Z</time>
      </trkpt>
      <trkpt lat="46.45942" lon="-1.70354">
        <ele>24</ele>
        <time>2021-10-09T18:20:33Z</time>
      </trkpt>
      <trkpt lat="46.45896" lon="-1.70354">
        <ele>24</ele>
        <time>2021-10-09T18:21:34Z</time>
      </trkpt>
      <trkpt lat="46.4578" lon="-1.70331">
        <ele>24</ele>
        <time>2021-10-09T18:24:10Z</time>
      </trkpt>
      <trkpt lat="46.45755" lon="-1.70334">
        <ele>24</ele>
        <time>2021-10-09T18:24:44Z</time>
      </trkpt>
      <trkpt lat="46.45646" lon="-1.70363">
        <ele>23</ele>
        <time>2021-10-09T18:27:12Z</time>
      </trkpt>
      <trkpt lat="46.45631" lon="-1.70363">
        <ele>22</ele>
        <time>2021-10-09T18:27:32Z</time>
      </trkpt>
      <trkpt lat="46.45546" lon="-1.7039">
        <ele>22</ele>
        <time>2021-10-09T18:29:28Z</time>
      </trkpt>
      <trkpt lat="46.45539" lon="-1.7041">
        <ele>22</ele>
        <time>2021-10-09T18:29:49Z</time>
      </trkpt>
      <trkpt lat="46.45529" lon="-1.70481">
        <ele>21</ele>
        <time>2021-10-09T18:30:55Z</time>
      </trkpt>
      <trkpt lat="46.45485" lon="-1.70514">
        <ele>22</ele>
        <time>2021-10-09T18:32:01Z</time>
      </trkpt>
      <trkpt lat="46.45454" lon="-1.70533">
        <ele>22</ele>
        <time>2021-10-09T18:32:46Z</time>
      </trkpt>
      <trkpt lat="46.45427" lon="-1.70535">
        <ele>22</ele>
        <time>2021-10-09T18:33:22Z</time>
      </trkpt>
      <trkpt lat="46.45308" lon="-1.70508">
        <ele>21</ele>
        <time>2021-10-09T18:36:03Z</time>
      </trkpt>
      <trkpt lat="46.45255" lon="-1.705">
        <ele>22</ele>
        <time>2021-10-09T18:37:14Z</time>
      </trkpt>
      <trkpt lat="46.45252" lon="-1.70486">
        <ele>22</ele>
        <time>2021-10-09T18:37:28Z</time>
      </trkpt>
      <trkpt lat="46.45069" lon="-1.70459">
        <ele>16</ele>
        <time>2021-10-09T18:41:33Z</time>
      </trkpt>
      <trkpt lat="46.45078" lon="-1.70563">
        <ele>13</ele>
        <time>2021-10-09T18:43:09Z</time>
      </trkpt>
      <trkpt lat="46.45073" lon="-1.70589">
        <ele>11</ele>
        <time>2021-10-09T18:43:34Z</time>
      </trkpt>
      <trkpt lat="46.45057" lon="-1.70636">
        <ele>7</ele>
        <time>2021-10-09T18:44:22Z</time>
      </trkpt>
      <trkpt lat="46.45047" lon="-1.70634">
        <ele>7</ele>
        <time>2021-10-09T18:44:36Z</time>
      </trkpt>
      <trkpt lat="46.45039" lon="-1.70619">
        <ele>7</ele>
        <time>2021-10-09T18:44:53Z</time>
      </trkpt>
      <trkpt lat="46.45031" lon="-1.70615">
        <ele>6</ele>
        <time>2021-10-09T18:45:05Z</time>
      </trkpt>
      <trkpt lat="46.45011" lon="-1.70616">
        <ele>5</ele>
        <time>2021-10-09T18:45:31Z</time>
      </trkpt>
      <trkpt lat="46.45003" lon="-1.70614">
        <ele>4</ele>
        <time>2021-10-09T18:45:42Z</time>
      </trkpt>
      <trkpt lat="46.4498" lon="-1.70541">
        <ele>7</ele>
        <time>2021-10-09T18:46:56Z</time>
      </trkpt>
      <trkpt lat="46.44973" lon="-1.70528">
        <ele>8</ele>
        <time>2021-10-09T18:47:11Z</time>
      </trkpt>
      <trkpt lat="46.44953" lon="-1.70532">
        <ele>6</ele>
        <time>2021-10-09T18:47:38Z</time>
      </trkpt>
      <trkpt lat="46.44911" lon="-1.70479">
        <ele>5</ele>
        <time>2021-10-09T18:48:52Z</time>
      </trkpt>
      <trkpt lat="46.449" lon="-1.70444">
        <ele>6</ele>
        <time>2021-10-09T18:49:28Z</time>
      </trkpt>
      <trkpt lat="46.449" lon="-1.70431">
        <ele>7</ele>
        <time>2021-10-09T18:49:40Z</time>
      </trkpt>
      <trkpt lat="46.44901" lon="-1.70423">
        <ele>7</ele>
        <time>2021-10-09T18:49:47Z</time>
      </trkpt>
      <trkpt lat="46.44896" lon="-1.70412">
        <ele>7</ele>
        <time>2021-10-09T18:49:59Z</time>
      </trkpt>
      <trkpt lat="46.44895" lon="-1.70397">
        <ele>8</ele>
        <time>2021-10-09T18:50:13Z</time>
      </trkpt>
      <trkpt lat="46.4489" lon="-1.7038">
        <ele>8</ele>
        <time>2021-10-09T18:50:30Z</time>
      </trkpt>
      <trkpt lat="46.44884" lon="-1.70368">
        <ele>7</ele>
        <time>2021-10-09T18:50:44Z</time>
      </trkpt>
      <trkpt lat="46.44876" lon="-1.70305">
        <ele>8</ele>
        <time>2021-10-09T18:51:43Z</time>
      </trkpt>
      <trkpt lat="46.44861" lon="-1.7027">
        <ele>8</ele>
        <time>2021-10-09T18:52:21Z</time>
      </trkpt>
      <trkpt lat="46.44842" lon="-1.70249">
        <ele>6</ele>
        <time>2021-10-09T18:52:52Z</time>
      </trkpt>
      <trkpt lat="46.44833" lon="-1.70228">
        <ele>6</ele>
        <time>2021-10-09T18:53:15Z</time>
      </trkpt>
      <trkpt lat="46.44829" lon="-1.70217">
        <ele>6</ele>
        <time>2021-10-09T18:53:27Z</time>
      </trkpt>
      <trkpt lat="46.44836" lon="-1.70192">
        <ele>7</ele>
        <time>2021-10-09T18:53:51Z</time>
      </trkpt>
      <trkpt lat="46.44832" lon="-1.70178">
        <ele>7</ele>
        <time>2021-10-09T18:54:05Z</time>
      </trkpt>
      <trkpt lat="46.44833" lon="-1.70173">
        <ele>8</ele>
        <time>2021-10-09T18:54:10Z</time>
      </trkpt>
      <trkpt lat="46.44833" lon="-1.70164">
        <ele>8</ele>
        <time>2021-10-09T18:54:18Z</time>
      </trkpt>
      <trkpt lat="46.44812" lon="-1.70134">
        <ele>7</ele>
        <time>2021-10-09T18:54:58Z</time>
      </trkpt>
      <trkpt lat="46.44802" lon="-1.70113">
        <ele>7</ele>
        <time>2021-10-09T18:55:21Z</time>
      </trkpt>
      <trkpt lat="46.44789" lon="-1.70108">
        <ele>5</ele>
        <time>2021-10-09T18:55:39Z</time>
      </trkpt>
      <trkpt lat="46.44785" lon="-1.70099">
        <ele>5</ele>
        <time>2021-10-09T18:55:49Z</time>
      </trkpt>
      <trkpt lat="46.44785" lon="-1.7009">
        <ele>5</ele>
        <time>2021-10-09T18:55:57Z</time>
      </trkpt>
      <trkpt lat="46.44789" lon="-1.70081">
        <ele>6</ele>
        <time>2021-10-09T18:56:07Z</time>
      </trkpt>
      <trkpt lat="46.4479" lon="-1.70059">
        <ele>6</ele>
        <time>2021-10-09T18:56:27Z</time>
      </trkpt>
      <trkpt lat="46.44784" lon="-1.69996">
        <ele>7</ele>
        <time>2021-10-09T18:57:26Z</time>
      </trkpt>
      <trkpt lat="46.44771" lon="-1.69977">
        <ele>6</ele>
        <time>2021-10-09T18:57:50Z</time>
      </trkpt>
      <trkpt lat="46.44759" lon="-1.69944">
        <ele>5</ele>
        <time>2021-10-09T18:58:25Z</time>
      </trkpt>
      <trkpt lat="46.44751" lon="-1.69886">
        <ele>7</ele>
        <time>2021-10-09T18:59:19Z</time>
      </trkpt>
      <trkpt lat="46.44749" lon="-1.69878">
        <ele>7</ele>
        <time>2021-10-09T18:59:27Z</time>
      </trkpt>
      <trkpt lat="46.44742" lon="-1.69868">
        <ele>7</ele>
        <time>2021-10-09T18:59:40Z</time>
      </trkpt>
      <trkpt lat="46.44728" lon="-1.69864">
        <ele>6</ele>
        <time>2021-10-09T18:59:59Z</time>
      </trkpt>
      <trkpt lat="46.44722" lon="-1.69851">
        <ele>5</ele>
        <time>2021-10-09T19:00:14Z</time>
      </trkpt>
      <trkpt lat="46.44722" lon="-1.69835">
        <ele>6</ele>
        <time>2021-10-09T19:00:28Z</time>
      </trkpt>
      <trkpt lat="46.44724" lon="-1.69828">
        <ele>6</ele>
        <time>2021-10-09T19:00:35Z</time>
      </trkpt>
      <trkpt lat="46.44721" lon="-1.69808">
        <ele>6</ele>
        <time>2021-10-09T19:00:54Z</time>
      </trkpt>
      <trkpt lat="46.44725" lon="-1.69803">
        <ele>6</ele>
        <time>2021-10-09T19:01:01Z</time>
      </trkpt>
      <trkpt lat="46.44732" lon="-1.69799">
        <ele>7</ele>
        <time>2021-10-09T19:01:11Z</time>
      </trkpt>
      <trkpt lat="46.44736" lon="-1.69783">
        <ele>7</ele>
        <time>2021-10-09T19:01:27Z</time>
      </trkpt>
      <trkpt lat="46.44756" lon="-1.69758">
        <ele>9</ele>
        <time>2021-10-09T19:02:02Z</time>
      </trkpt>
      <trkpt lat="46.44763" lon="-1.69739">
        <ele>9</ele>
        <time>2021-10-09T19:02:22Z</time>
      </trkpt>
      <trkpt lat="46.44762" lon="-1.69712">
        <ele>9</ele>
        <time>2021-10-09T19:02:47Z</time>
      </trkpt>
      <trkpt lat="46.44755" lon="-1.69684">
        <ele>7</ele>
        <time>2021-10-09T19:03:14Z</time>
      </trkpt>
      <trkpt lat="46.44737" lon="-1.69643">
        <ele>7</ele>
        <time>2021-10-09T19:03:59Z</time>
      </trkpt>
      <trkpt lat="46.447" lon="-1.69588">
        <ele>6</ele>
        <time>2021-10-09T19:05:09Z</time>
      </trkpt>
    </trkseg>
  </trk>
</gpx>